Time;durP1;ratioP1;P1;durP2;ratioP2;P2;SDS_P1;SDS_P2;PMS_P1;PMS_P2;Temp;Humidity;BMP_temperature;BMP_pressure;BME280_temperature;BME280_humidity;BME280_pressure;Samples;Min_cycle;Max_cycle;Signal;HPM_P1;HPM_P2
2023/03/06 00:01:39;;;;;;;11.90;5.93;;;;;;;1.60;100.00;100752.94;5263226;28;20044;-70
2023/03/06 00:04:10;;;;;;;9.30;6.50;;;;;;;1.67;100.00;100743.66;5263283;28;20116;-70
2023/03/06 00:06:42;;;;;;;9.53;6.33;;;;;;;1.66;100.00;100739.34;5262743;28;20029;-69
2023/03/06 00:09:13;;;;;;;10.23;6.27;;;;;;;1.70;100.00;100739.47;5261468;28;20041;-69
2023/03/06 00:11:44;;;;;;;7.90;5.90;;;;;;;1.71;100.00;100738.63;5228467;28;20033;-69
2023/03/06 00:14:16;;;;;;;6.90;5.70;;;;;;;1.72;100.00;100732.66;5263097;28;20098;-70
2023/03/06 00:16:47;;;;;;;8.60;5.83;;;;;;;1.68;100.00;100724.84;5262730;28;20088;-70
2023/03/06 00:19:18;;;;;;;8.20;6.17;;;;;;;1.63;100.00;100732.47;5261770;28;20025;-70
2023/03/06 00:21:50;;;;;;;10.03;6.10;;;;;;;1.59;100.00;100728.06;5262746;28;20059;-70
2023/03/06 00:24:21;;;;;;;9.23;6.23;;;;;;;1.63;100.00;100724.75;5262885;28;20036;-70
2023/03/06 00:26:53;;;;;;;7.77;6.63;;;;;;;1.60;100.00;100719.53;5262728;28;20029;-71
2023/03/06 00:29:24;;;;;;;11.07;6.70;;;;;;;1.62;100.00;100721.28;5262615;28;20036;-70
2023/03/06 00:31:55;;;;;;;8.13;6.57;;;;;;;1.58;100.00;100713.50;5262901;28;20040;-71
2023/03/06 00:34:27;;;;;;;9.07;6.70;;;;;;;1.56;100.00;100713.47;5262931;28;20076;-71
2023/03/06 00:36:58;;;;;;;9.17;7.30;;;;;;;1.47;100.00;100712.41;5261305;28;20036;-70
2023/03/06 00:39:29;;;;;;;10.67;7.77;;;;;;;1.37;100.00;100708.72;5262498;28;20063;-70
2023/03/06 00:42:01;;;;;;;10.67;6.97;;;;;;;1.31;100.00;100712.03;5262309;28;20037;-70
2023/03/06 00:44:32;;;;;;;10.73;7.47;;;;;;;1.30;100.00;100702.56;5262776;28;20094;-70
2023/03/06 00:47:04;;;;;;;12.40;7.63;;;;;;;1.24;100.00;100699.84;5261216;28;20033;-69
2023/03/06 00:49:35;;;;;;;11.03;7.70;;;;;;;1.24;100.00;100693.03;5261306;28;20132;-69
2023/03/06 00:52:07;;;;;;;10.43;7.97;;;;;;;1.22;100.00;100696.38;5265855;28;20037;-70
2023/03/06 00:54:39;;;;;;;15.87;9.17;;;;;;;1.20;100.00;100692.94;5267026;28;20380;-70
2023/03/06 00:57:10;;;;;;;10.82;9.00;;;;;;;1.13;100.00;100699.63;5266965;28;20029;-70
2023/03/06 00:59:42;;;;;;;13.90;9.50;;;;;;;1.08;100.00;100698.63;5266874;28;20040;-71
2023/03/06 01:02:13;;;;;;;15.20;8.30;;;;;;;1.04;100.00;100694.25;5266432;28;20114;-70
2023/03/06 01:04:45;;;;;;;10.20;8.37;;;;;;;0.99;100.00;100683.88;5266725;28;20499;-70
2023/03/06 01:07:16;;;;;;;11.17;8.90;;;;;;;0.93;100.00;100677.72;5266311;28;20106;-70
2023/03/06 01:09:48;;;;;;;13.07;9.23;;;;;;;0.86;100.00;100679.25;5266751;28;20483;-71
2023/03/06 01:12:19;;;;;;;16.37;10.30;;;;;;;0.74;100.00;100669.53;5266196;28;20036;-70
2023/03/06 01:14:50;;;;;;;12.13;9.70;;;;;;;0.69;100.00;100676.25;5266241;28;20526;-70
2023/03/06 01:17:22;;;;;;;12.73;9.87;;;;;;;0.65;100.00;100674.47;5266228;28;20080;-70
2023/03/06 01:19:53;;;;;;;12.87;10.20;;;;;;;0.59;100.00;100677.72;5265147;28;20044;-70
2023/03/06 01:22:24;;;;;;;13.63;10.27;;;;;;;0.50;100.00;100667.22;5266298;28;20411;-69
2023/03/06 01:24:56;;;;;;;16.00;11.50;;;;;;;0.46;100.00;100679.09;5265083;28;20064;-70
2023/03/06 01:27:27;;;;;;;16.23;11.03;;;;;;;0.41;100.00;100680.66;5266181;28;20112;-70
2023/03/06 01:29:59;;;;;;;13.17;10.40;;;;;;;0.38;100.00;100675.47;5266286;28;20040;-70
2023/03/06 01:32:30;;;;;;;13.67;10.60;;;;;;;0.39;100.00;100674.66;5265848;28;20025;-70
2023/03/06 01:35:02;;;;;;;16.27;11.23;;;;;;;0.37;100.00;100668.59;5266031;28;20044;-70
2023/03/06 01:37:35;;;;;;;15.65;11.43;;;;;;;0.34;100.00;100669.38;5265042;28;20476;-70
2023/03/06 01:40:09;;;;;;;16.27;10.75;;;;;;;0.34;100.00;100671.09;5265897;28;20036;-70
2023/03/06 01:42:41;;;;;;;15.13;10.93;;;;;;;0.28;100.00;100663.22;5265444;28;20497;-70
2023/03/06 01:45:12;;;;;;;17.85;11.98;;;;;;;0.25;100.00;100669.13;5265844;28;20392;-70
2023/03/06 01:47:44;;;;;;;18.70;12.40;;;;;;;0.21;100.00;100658.75;5265856;28;20039;-69
2023/03/06 01:50:15;;;;;;;21.07;11.63;;;;;;;0.18;100.00;100660.41;5264153;28;20068;-70
2023/03/06 01:52:54;;;;;;;16.03;12.10;;;;;;;0.12;100.00;100651.69;5265890;28;20082;-69
2023/03/06 01:55:29;;;;;;;14.25;11.27;;;;;;;0.04;100.00;100648.03;5265683;28;20107;-70
2023/03/06 01:58:06;;;;;;;14.48;11.70;;;;;;;0.02;100.00;100654.81;5264414;28;20060;-69
2023/03/06 02:00:37;;;;;;;16.42;11.23;;;;;;;0.00;100.00;100649.66;5266125;28;20025;-71
2023/03/06 02:03:13;;;;;;;14.37;11.20;;;;;;;-0.02;100.00;100646.16;5265257;28;20028;-70
2023/03/06 02:05:45;;;;;;;17.70;12.20;;;;;;;-0.12;100.00;100641.63;5265394;28;20158;-70
2023/03/06 02:08:19;;;;;;;15.55;11.63;;;;;;;-0.16;100.00;100638.13;5265236;28;20536;-70
2023/03/06 02:11:05;;;;;;;17.85;10.93;;;;;;;-0.17;100.00;100646.59;5269378;28;20496;-70
2023/03/06 02:13:37;;;;;;;14.48;11.10;;;;;;;-0.19;100.00;100640.59;5270484;28;20033;-71
2023/03/06 02:16:10;;;;;;;;;;;;;;;-0.28;100.00;100635.19;5271347;28;20051;-70
2023/03/06 02:18:43;;;;;;;14.25;11.07;;;;;;;-0.30;100.00;100636.84;5265942;28;19916;-70
2023/03/06 02:21:23;;;;;;;18.77;11.15;;;;;;;-0.37;100.00;100634.09;5264366;28;20048;-70
2023/03/06 02:24:12;;;;;;;14.52;11.20;;;;;;;-0.45;100.00;100624.44;5265380;28;20522;-70
2023/03/06 02:26:46;;;;;;;17.35;12.00;;;;;;;-0.43;100.00;100621.09;5265249;28;20164;-70
2023/03/06 02:29:23;;;;;;;15.35;11.25;;;;;;;-0.46;100.00;100623.56;5264810;28;20040;-70
2023/03/06 02:31:54;;;;;;;16.05;12.05;;;;;;;-0.45;100.00;100616.75;5263929;28;20117;-69
2023/03/06 02:34:25;;;;;;;16.83;11.73;;;;;;;-0.45;100.00;100611.63;5264784;28;20460;-70
2023/03/06 02:37:01;;;;;;;17.90;11.70;;;;;;;-0.50;100.00;100608.97;5263774;28;20086;-70
2023/03/06 02:39:39;;;;;;;17.77;12.55;;;;;;;-0.52;100.00;100610.59;5264720;28;20484;-70
2023/03/06 02:42:17;;;;;;;17.88;12.27;;;;;;;-0.57;100.00;100599.34;5264507;28;20027;-70
2023/03/06 02:44:50;;;;;;;17.80;12.00;;;;;;;-0.64;100.00;100597.44;5265013;28;20531;-69
2023/03/06 02:47:21;;;;;;;18.08;12.38;;;;;;;-0.67;100.00;100594.78;5264798;28;20036;-70
2023/03/06 02:49:52;;;;;;;18.17;12.37;;;;;;;-0.67;100.00;100587.97;5264815;28;20103;-70
2023/03/06 02:52:24;;;;;;;15.97;12.43;;;;;;;-0.66;100.00;100596.50;5264439;28;20116;-70
2023/03/06 02:54:55;;;;;;;24.37;12.70;;;;;;;-0.62;100.00;100588.97;5264616;28;20064;-70
2023/03/06 02:57:27;;;;;;;18.83;13.50;;;;;;;-0.69;100.00;100592.19;5264689;28;20044;-70
2023/03/06 02:59:58;;;;;;;21.00;14.70;;;;;;;-0.74;100.00;100581.81;5264473;28;20056;-70
2023/03/06 03:02:29;;;;;;;17.67;12.47;;;;;;;-0.78;100.00;100590.19;5263184;28;20533;-70
2023/03/06 03:05:01;;;;;;;23.87;13.97;;;;;;;-0.79;100.00;100585.94;5263359;28;20044;-70
2023/03/06 03:07:32;;;;;;;18.87;13.23;;;;;;;-0.73;100.00;100574.97;5264274;28;20440;-70
2023/03/06 03:10:04;;;;;;;22.23;13.77;;;;;;;-0.76;100.00;100580.91;5264316;28;20040;-70
2023/03/06 03:12:36;;;;;;;19.80;13.80;;;;;;;-0.79;100.00;100574.78;5263958;28;20055;-70
2023/03/06 03:15:08;;;;;;;19.23;13.50;;;;;;;-0.83;100.00;100576.41;5263395;28;20175;-70
2023/03/06 03:17:40;;;;;;;21.60;14.90;;;;;;;-0.87;100.00;100581.38;5264313;28;20468;-70
2023/03/06 03:20:15;;;;;;;19.25;14.68;;;;;;;-0.93;100.00;100567.59;5264086;28;20086;-70
2023/03/06 03:22:51;;;;;;;21.83;15.73;;;;;;;-0.91;100.00;100577.88;5263717;28;20033;-70
2023/03/06 03:25:24;;;;;;;22.13;15.25;;;;;;;-0.92;100.00;100576.13;5263945;28;20102;-70
2023/03/06 03:27:56;;;;;;;21.05;15.15;;;;;;;-0.94;100.00;100576.06;5263998;28;20043;-70
2023/03/06 03:30:27;;;;;;;22.03;15.83;;;;;;;-0.93;100.00;100569.28;5264064;28;20028;-70
2023/03/06 03:32:59;;;;;;;23.70;14.50;;;;;;;-0.96;100.00;100569.19;5263531;28;20037;-71
2023/03/06 03:35:30;;;;;;;21.50;15.63;;;;;;;-0.96;100.00;100562.38;5262339;28;20499;-70
2023/03/06 03:38:02;;;;;;;24.27;17.03;;;;;;;-1.00;100.00;100555.44;5263766;28;20044;-70
2023/03/06 03:40:33;;;;;;;21.50;14.67;;;;;;;-0.99;100.00;100549.47;5263272;28;20029;-70
2023/03/06 03:43:04;;;;;;;28.20;16.00;;;;;;;-1.01;100.00;100551.13;5263613;28;20049;-70
2023/03/06 03:45:36;;;;;;;22.33;15.60;;;;;;;-1.01;100.00;100552.84;5263444;28;20037;-70
2023/03/06 03:48:07;;;;;;;23.93;16.93;;;;;;;-1.04;100.00;100545.06;5263318;28;20068;-70
2023/03/06 03:50:38;;;;;;;23.60;16.37;;;;;;;-1.04;100.00;100547.63;5263303;28;20037;-70
2023/03/06 03:53:10;;;;;;;26.63;17.23;;;;;;;-1.00;100.00;100540.09;5263431;28;20033;-70
2023/03/06 03:55:41;;;;;;;29.23;18.43;;;;;;;-1.01;100.00;100532.38;5263352;28;20037;-70
2023/03/06 03:58:13;;;;;;;26.23;17.77;;;;;;;-0.98;100.00;100532.47;5263324;28;20112;-70
2023/03/06 04:00:44;;;;;;;26.77;17.83;;;;;;;-0.98;100.00;100528.19;5262833;28;20469;-70
2023/03/06 04:03:16;;;;;;;26.97;18.23;;;;;;;-0.95;100.00;100532.53;5263429;28;20032;-71
2023/03/06 04:05:47;;;;;;;28.53;17.83;;;;;;;-1.00;100.00;100521.28;5263183;28;20029;-70
2023/03/06 04:08:20;;;;;;;27.97;18.80;;;;;;;-0.97;100.00;100518.81;5262017;28;20058;-70
2023/03/06 04:10:52;;;;;;;33.90;19.92;;;;;;;-0.97;100.00;100526.50;5251533;28;20044;-70
2023/03/06 04:13:24;;;;;;;36.05;21.08;;;;;;;-0.99;100.00;100518.78;5241880;28;20038;-70
2023/03/06 04:15:55;;;;;;;34.47;22.30;;;;;;;-0.99;100.00;100523.91;5241592;28;20494;-69
2023/03/06 04:18:27;;;;;;;34.23;21.20;;;;;;;-1.00;100.00;100513.63;5242128;28;20030;-70
2023/03/06 04:20:58;;;;;;;32.53;21.80;;;;;;;-0.98;100.00;100517.09;5241840;28;20037;-70
2023/03/06 04:23:30;;;;;;;36.20;21.57;;;;;;;-1.02;100.00;100523.81;5242127;28;20273;-70
2023/03/06 04:26:02;;;;;;;36.40;22.17;;;;;;;-1.02;100.00;100516.13;5241191;28;20044;-70
2023/03/06 04:28:34;;;;;;;39.92;23.15;;;;;;;-1.01;100.00;100515.31;5242134;28;20038;-70
2023/03/06 04:31:05;;;;;;;40.67;24.05;;;;;;;-1.00;100.00;100513.63;5241999;28;20453;-70
2023/03/06 04:33:37;;;;;;;38.73;24.13;;;;;;;-0.98;100.00;100507.72;5240354;28;20071;-70
2023/03/06 04:36:21;;;;;;;46.00;24.57;;;;;;;-0.93;100.00;100511.28;5256631;28;20429;-70
2023/03/06 04:38:52;;;;;;;42.25;26.10;;;;;;;-0.87;100.00;100502.94;5241424;28;20433;-70
2023/03/06 04:41:24;;;;;;;45.47;26.27;;;;;;;-0.88;100.00;100501.19;5241207;28;20076;-70
2023/03/06 04:43:55;;;;;;;44.83;27.27;;;;;;;-0.88;100.00;100501.19;5246356;28;20032;-70
2023/03/06 04:46:27;;;;;;;44.80;26.33;;;;;;;-0.82;100.00;100497.94;5241449;28;20424;-70
2023/03/06 04:48:59;;;;;;;50.90;27.93;;;;;;;-0.77;100.00;100498.94;5239204;28;20037;-70
2023/03/06 04:51:30;;;;;;;50.10;27.75;;;;;;;-0.73;100.00;100499.06;5240829;28;20120;-70
2023/03/06 04:54:03;;;;;;;48.17;27.83;;;;;;;-0.68;100.00;100493.22;5241265;28;20456;-70
2023/03/06 04:56:34;;;;;;;;;;;;;;;-0.67;100.00;100494.97;5242220;28;20476;-69
2023/03/06 04:59:06;;;;;;;52.63;28.55;;;;;;;-0.62;100.00;100488.28;5241705;28;19920;-70
2023/03/06 05:01:37;;;;;;;46.00;26.67;;;;;;;-0.61;100.00;100495.09;5241601;28;20037;-70
2023/03/06 05:04:09;;;;;;;55.90;29.90;;;;;;;-0.60;100.00;100491.72;5241348;28;20065;-70
2023/03/06 05:06:40;;;;;;;57.53;29.97;;;;;;;-0.57;100.00;100499.50;5241749;28;20112;-70
2023/03/06 05:09:11;;;;;;;58.50;30.50;;;;;;;-0.57;100.00;100494.38;5241651;28;20025;-70
2023/03/06 05:11:43;;;;;;;56.20;29.73;;;;;;;-0.51;100.00;100489.44;5241869;28;20041;-70
2023/03/06 05:14:14;;;;;;;58.80;28.87;;;;;;;-0.47;100.00;100496.34;5245520;28;20056;-70
2023/03/06 05:16:45;;;;;;;51.97;28.87;;;;;;;-0.44;100.00;100486.19;5248066;28;20064;-70
2023/03/06 05:19:17;;;;;;;57.03;30.23;;;;;;;-0.41;100.00;100486.28;5246901;28;20041;-70
2023/03/06 05:21:48;;;;;;;50.70;29.57;;;;;;;-0.38;100.00;100476.13;5242353;28;20021;-70
2023/03/06 05:24:19;;;;;;;54.97;32.53;;;;;;;-0.38;100.00;100475.25;5241709;28;20048;-70
2023/03/06 05:26:51;;;;;;;60.40;31.40;;;;;;;-0.38;100.00;100475.25;5241471;28;20053;-69
2023/03/06 05:29:23;;;;;;;61.40;32.75;;;;;;;-0.35;100.00;100475.34;5241623;28;20075;-70
2023/03/06 05:31:54;;;;;;;50.70;29.17;;;;;;;-0.31;100.00;100481.41;5241667;28;20037;-69
2023/03/06 05:34:26;;;;;;;55.20;31.37;;;;;;;-0.29;100.00;100469.50;5241521;28;20099;-69
2023/03/06 05:36:59;;;;;;;54.40;28.97;;;;;;;-0.33;100.00;100468.56;5243237;28;20432;-71
2023/03/06 05:39:30;;;;;;;57.03;31.70;;;;;;;-0.30;100.00;100471.22;5245512;28;20033;-69
2023/03/06 05:42:02;;;;;;;64.10;36.13;;;;;;;-0.28;100.00;100468.69;5244859;28;20037;-70
2023/03/06 05:44:34;;;;;;;62.50;31.37;;;;;;;-0.27;100.00;100467.88;5245109;28;20136;-70
2023/03/06 05:47:07;;;;;;;57.45;32.22;;;;;;;-0.26;100.00;100465.34;5245120;28;20469;-70
2023/03/06 05:49:38;;;;;;;;;;;;;;;-0.25;100.00;100464.50;5245568;28;20032;-70
2023/03/06 05:52:11;;;;;;;58.22;32.38;;;;;;;-0.25;100.00;100467.06;5245035;28;19913;-70
2023/03/06 05:54:43;;;;;;;63.80;32.97;;;;;;;-0.24;100.00;100470.50;5244786;28;20030;-70
2023/03/06 05:57:14;;;;;;;54.77;31.60;;;;;;;-0.21;100.00;100468.00;5244688;28;20481;-70
2023/03/06 05:59:46;;;;;;;57.83;31.47;;;;;;;-0.21;100.00;100461.22;5244707;28;20272;-70
2023/03/06 06:02:18;;;;;;;55.42;31.48;;;;;;;-0.20;100.00;100459.50;5244692;28;20054;-70
2023/03/06 06:04:49;;;;;;;58.58;32.83;;;;;;;-0.19;100.00;100466.38;5244953;28;20465;-70
2023/03/06 06:07:21;;;;;;;65.53;33.97;;;;;;;-0.15;100.00;100469.88;5244824;28;20033;-69
2023/03/06 06:09:52;;;;;;;57.17;31.83;;;;;;;-0.15;100.00;100473.28;5245256;28;20125;-70
2023/03/06 06:12:25;;;;;;;58.40;32.53;;;;;;;-0.14;100.00;100474.19;5243330;28;20538;-70
2023/03/06 06:14:57;;;;;;;57.63;33.30;;;;;;;-0.12;100.00;100470.81;5244621;28;20444;-70
2023/03/06 06:17:30;;;;;;;60.97;33.87;;;;;;;-0.13;100.00;100458.84;5244560;28;20077;-70
2023/03/06 06:20:01;;;;;;;;;;;;;;;-0.11;100.00;100463.97;5244884;28;20077;-70
2023/03/06 06:22:36;;;;;;;60.20;33.53;;;;;;;-0.12;100.00;100459.72;5244256;28;19924;-70
2023/03/06 06:25:07;;;;;;;61.97;32.45;;;;;;;-0.08;100.00;100458.94;5244264;28;20049;-70
2023/03/06 06:27:39;;;;;;;59.20;33.87;;;;;;;-0.06;100.00;100462.44;5244422;28;20033;-70
2023/03/06 06:30:11;;;;;;;57.10;32.73;;;;;;;-0.05;100.00;100465.03;5244089;28;20112;-70
2023/03/06 06:32:43;;;;;;;59.22;32.90;;;;;;;-0.03;100.00;100463.38;5243068;28;20095;-69
2023/03/06 06:35:14;;;;;;;61.00;32.90;;;;;;;0.02;100.00;100460.94;5244203;28;20469;-70
2023/03/06 06:37:46;;;;;;;55.20;32.17;;;;;;;0.05;100.00;100455.00;5244140;28;20029;-70
2023/03/06 06:40:17;;;;;;;58.83;32.43;;;;;;;0.04;100.00;100458.41;5243667;28;20025;-70
2023/03/06 06:42:49;;;;;;;58.07;32.10;;;;;;;0.08;100.00;100458.53;5243822;28;20381;-70
2023/03/06 06:45:20;;;;;;;56.83;32.07;;;;;;;0.15;100.00;100459.53;5242413;28;20030;-70
2023/03/06 06:47:52;;;;;;;56.17;33.27;;;;;;;0.17;100.00;100465.56;5243401;28;20036;-69
2023/03/06 06:50:23;;;;;;;58.13;32.00;;;;;;;0.20;100.00;100455.38;5243715;28;20072;-70
2023/03/06 06:52:54;;;;;;;52.00;30.20;;;;;;;0.24;100.00;100462.31;5243793;28;20076;-70
2023/03/06 06:55:26;;;;;;;57.03;33.17;;;;;;;0.27;100.00;100452.13;5243638;28;20034;-70
2023/03/06 06:57:57;;;;;;;53.60;31.00;;;;;;;0.34;100.00;100456.56;5243842;28;20373;-69
2023/03/06 07:00:29;;;;;;;55.00;31.83;;;;;;;0.40;100.00;100458.41;5243351;28;20022;-69
2023/03/06 07:03:00;;;;;;;54.43;33.23;;;;;;;0.45;100.00;100461.97;5243364;28;20446;-69
2023/03/06 07:05:31;;;;;;;52.80;31.77;;;;;;;0.48;100.00;100462.03;5243230;28;20041;-70
2023/03/06 07:08:03;;;;;;;52.47;30.83;;;;;;;0.54;100.00;100476.69;5243534;28;20438;-69
2023/03/06 07:10:38;;;;;;;54.63;32.67;;;;;;;0.54;100.00;100471.56;5258898;28;20029;-70
2023/03/06 07:13:09;;;;;;;72.22;32.50;;;;;;;0.56;100.00;100474.16;5242924;28;20389;-69
2023/03/06 07:15:40;;;;;;;53.87;31.77;;;;;;;0.56;100.00;100469.03;5243430;28;20032;-69
2023/03/06 07:18:12;;;;;;;53.00;32.63;;;;;;;0.59;100.00;100466.53;5243376;28;20081;-70
2023/03/06 07:20:43;;;;;;;59.33;34.70;;;;;;;0.60;100.00;100474.25;5243281;28;20104;-70
2023/03/06 07:23:15;;;;;;;55.60;33.73;;;;;;;0.63;100.00;100476.00;5243153;28;20076;-70
2023/03/06 07:25:46;;;;;;;61.03;35.03;;;;;;;0.68;100.00;100471.88;5241931;28;20026;-70
2023/03/06 07:28:17;;;;;;;60.53;36.07;;;;;;;0.73;100.00;100472.84;5243134;28;20040;-70
2023/03/06 07:30:49;;;;;;;63.07;35.43;;;;;;;0.77;100.00;100469.50;5243076;28;20112;-70
2023/03/06 07:33:20;;;;;;;58.67;36.70;;;;;;;0.79;100.00;100467.84;5241738;28;20029;-70
2023/03/06 07:35:52;;;;;;;57.90;36.13;;;;;;;0.82;100.00;100472.16;5257986;28;20129;-70
2023/03/06 07:38:23;;;;;;;60.60;36.53;;;;;;;0.84;100.00;100471.38;5243010;28;20109;-70
2023/03/06 07:40:54;;;;;;;59.77;35.37;;;;;;;0.96;100.00;100460.50;5242358;28;20107;-69
2023/03/06 07:43:26;;;;;;;63.03;39.97;;;;;;;1.07;100.00;100466.72;5242816;28;20458;-70
2023/03/06 07:45:58;;;;;;;56.63;35.17;;;;;;;1.18;100.00;100468.66;5243071;28;20548;-70
2023/03/06 07:48:30;;;;;;;54.88;35.97;;;;;;;1.27;100.00;100474.84;5242708;28;20041;-70
2023/03/06 07:51:06;;;;;;;51.23;32.83;;;;;;;1.25;100.00;100475.63;5242620;28;20037;-70
2023/03/06 07:53:38;;;;;;;57.45;35.05;;;;;;;1.27;100.00;100476.53;5242266;28;20043;-70
2023/03/06 07:56:10;;;;;;;68.87;38.20;;;;;;;1.24;100.00;100479.91;5242551;28;20116;-70
2023/03/06 07:58:44;;;;;;;52.72;34.78;;;;;;;1.29;100.00;100472.31;5242141;28;20030;-70
2023/03/06 08:01:18;;;;;;;54.45;34.00;;;;;;;1.27;100.00;100477.41;5241920;28;20041;-69
2023/03/06 08:03:50;;;;;;;52.60;37.03;;;;;;;1.25;100.00;100481.63;5242349;28;20037;-70
2023/03/06 08:06:24;;;;;;;53.65;38.83;;;;;;;1.22;100.00;100485.84;5242035;28;20041;-70
2023/03/06 08:08:56;;;;;;;56.10;35.35;;;;;;;1.25;100.00;100479.06;5242091;28;20041;-70
2023/03/06 08:11:29;;;;;;;49.10;34.97;;;;;;;1.19;100.00;100484.09;5242628;28;20033;-71
2023/03/06 08:14:00;;;;;;;56.15;34.45;;;;;;;1.25;100.00;100478.19;5245948;28;20021;-69
2023/03/06 08:16:32;;;;;;;60.20;38.10;;;;;;;1.27;100.00;100474.84;5247986;28;20065;-69
2023/03/06 08:19:03;;;;;;;57.70;33.37;;;;;;;1.33;100.00;100481.78;5246084;28;20577;-70
2023/03/06 08:21:35;;;;;;;52.97;35.77;;;;;;;1.38;100.00;100476.75;5242361;28;20033;-70
2023/03/06 08:24:06;;;;;;;55.43;34.37;;;;;;;1.47;100.00;100486.34;5240942;28;20484;-70
2023/03/06 08:26:38;;;;;;;52.27;34.83;;;;;;;1.51;100.00;100482.97;5242401;28;20037;-70
2023/03/06 08:29:10;;;;;;;49.20;33.13;;;;;;;1.51;100.00;100478.69;5242193;28;20123;-70
2023/03/06 08:31:44;;;;;;;48.90;31.90;;;;;;;1.57;100.00;100483.09;5242134;28;20037;-70
2023/03/06 08:34:19;;;;;;;45.72;30.92;;;;;;;1.59;100.00;100476.28;5241995;28;20021;-70
2023/03/06 08:36:50;;;;;;;43.60;30.75;;;;;;;1.74;100.00;100471.44;5242125;28;20060;-70
2023/03/06 08:39:22;;;;;;;47.20;30.93;;;;;;;1.99;100.00;100472.72;5241643;28;20060;-70
2023/03/06 08:41:53;;;;;;;41.67;29.40;;;;;;;2.22;100.00;100477.38;5240418;28;20025;-70
2023/03/06 08:44:25;;;;;;;38.57;29.00;;;;;;;2.35;100.00;100476.75;5241686;28;20029;-70
2023/03/06 08:46:56;;;;;;;39.23;29.43;;;;;;;2.51;100.00;100471.81;5240454;28;20061;-70
2023/03/06 08:49:28;;;;;;;35.13;26.23;;;;;;;2.61;100.00;100486.59;5241581;28;20374;-70
2023/03/06 08:51:59;;;;;;;34.00;26.73;;;;;;;2.61;100.00;100473.72;5241878;28;20065;-72
2023/03/06 08:54:33;;;;;;;35.77;24.90;;;;;;;2.55;100.00;100476.19;5240861;28;20057;-70
2023/03/06 08:57:05;;;;;;;35.60;26.25;;;;;;;2.52;100.00;100481.28;5241768;28;20029;-71
2023/03/06 08:59:36;;;;;;;31.40;25.88;;;;;;;2.50;100.00;100486.41;5241833;28;20034;-70
2023/03/06 09:02:11;;;;;;;37.33;28.10;;;;;;;2.65;100.00;100479.75;5241566;28;20029;-70
2023/03/06 09:04:43;;;;;;;33.78;24.38;;;;;;;2.70;100.00;100486.69;5241565;28;20029;-70
2023/03/06 09:07:14;;;;;;;32.63;25.17;;;;;;;2.78;100.00;100486.81;5241450;28;20061;-70
2023/03/06 09:09:45;;;;;;;33.60;22.80;;;;;;;3.02;100.00;100480.28;5241791;28;20469;-70
2023/03/06 09:12:17;;;;;;;31.70;23.93;;;;;;;3.24;100.00;100484.84;5243507;28;20036;-70
2023/03/06 09:14:49;;;;;;;30.37;22.27;;;;;;;3.44;100.00;100486.78;5261246;28;20159;-71
2023/03/06 09:17:20;;;;;;;29.37;23.33;;;;;;;3.67;100.00;100486.19;5245865;28;20049;-71
2023/03/06 09:19:51;;;;;;;29.37;21.83;;;;;;;3.69;100.00;100484.47;5245488;28;20048;-71
2023/03/06 09:22:23;;;;;;;27.33;21.23;;;;;;;3.62;100.00;100486.13;5245568;28;20029;-71
2023/03/06 09:24:54;;;;;;;30.00;22.03;;;;;;;3.59;100.00;100489.56;5245891;28;20040;-71
2023/03/06 09:27:27;;;;;;;29.37;20.93;;;;;;;3.71;100.00;100488.81;5245723;28;20054;-71
2023/03/06 09:29:58;;;;;;;28.13;20.85;;;;;;;3.65;100.00;100492.22;5245280;28;20091;-70
2023/03/06 09:32:29;;;;;;;30.13;22.87;;;;;;;3.62;100.00;100491.28;5245432;28;20041;-70
2023/03/06 09:35:01;;;;;;;24.30;19.97;;;;;;;3.64;100.00;100490.47;5245447;28;20042;-70
2023/03/06 09:37:32;;;;;;;24.93;22.00;;;;;;;3.63;100.00;100496.47;5245379;28;20064;-70
2023/03/06 09:40:06;;;;;;;31.80;24.13;;;;;;;3.63;100.00;100493.88;5245357;28;20037;-70
2023/03/06 09:42:38;;;;;;;26.52;20.25;;;;;;;3.72;100.00;100494.81;5244728;28;20084;-70
2023/03/06 09:45:11;;;;;;;32.33;21.50;;;;;;;3.77;100.00;100494.03;5245269;28;20108;-70
2023/03/06 09:47:51;;;;;;;23.42;19.63;;;;;;;3.80;100.00;100490.59;5245249;28;20108;-70
2023/03/06 09:50:27;;;;;;;25.55;20.58;;;;;;;3.73;100.00;100501.72;5244850;28;20029;-70
2023/03/06 09:53:04;;;;;;;25.25;21.55;;;;;;;3.70;100.00;100493.94;5244886;28;20381;-71
2023/03/06 09:55:39;;;;;;;24.35;20.08;;;;;;;3.68;100.00;100499.09;5244885;28;20029;-70
2023/03/06 09:58:16;;;;;;;25.45;20.13;;;;;;;3.67;100.00;100497.38;5244764;28;20120;-71
2023/03/06 10:01:03;;;;;;;25.33;19.75;;;;;;;3.86;100.00;100494.97;5245038;28;20033;-70
2023/03/06 10:04:02;;;;;;;23.00;16.52;;;;;;;4.21;100.00;100492.72;5244681;28;20039;-70
2023/03/06 10:06:40;;;;;;;20.83;16.70;;;;;;;4.37;100.00;100494.56;5244902;28;20445;-70
2023/03/06 10:09:23;;;;;;;19.65;15.30;;;;;;;4.66;98.77;100491.34;5244539;28;20409;-70
2023/03/06 10:12:02;;;;;;;18.42;14.45;;;;;;;4.88;96.44;100488.91;5243036;28;20084;-71
2023/03/06 10:14:34;;;;;;;20.05;14.63;;;;;;;4.82;92.57;100494.88;5244657;28;20080;-70
2023/03/06 10:17:19;;;;;;;18.60;15.10;;;;;;;4.65;93.72;100488.75;5243162;28;20049;-71
2023/03/06 10:19:51;;;;;;;15.73;12.68;;;;;;;4.75;93.17;100490.56;5244842;28;20037;-71
2023/03/06 10:22:42;;;;;;;16.83;13.63;;;;;;;4.87;92.37;100490.59;5243774;28;20033;-71
2023/03/06 10:25:27;;;;;;;19.17;14.18;;;;;;;5.26;91.98;100488.22;5243818;28;20034;-71
2023/03/06 10:28:13;;;;;;;18.70;15.48;;;;;;;5.18;92.04;100495.06;5243059;28;20044;-71
2023/03/06 10:30:54;;;;;;;24.45;17.92;;;;;;;4.81;92.02;100484.56;5244083;28;20021;-71
2023/03/06 10:33:54;;;;;;;16.92;14.23;;;;;;;5.01;91.92;100493.28;5244213;28;20032;-71
2023/03/06 10:36:27;;;;;;;15.13;13.52;;;;;;;5.13;89.53;100491.63;5243208;28;20087;-71
2023/03/06 10:38:58;;;;;;;16.38;13.13;;;;;;;5.65;89.79;100481.44;5243593;28;20120;-71
2023/03/06 10:41:34;;;;;;;17.07;13.13;;;;;;;5.53;86.47;100486.59;5243391;28;20511;-70
2023/03/06 10:44:07;;;;;;;18.70;13.73;;;;;;;5.74;86.96;100483.22;5244060;28;20053;-71
2023/03/06 10:46:43;;;;;;;16.50;14.57;;;;;;;5.73;87.09;100484.06;5243873;28;20037;-71
2023/03/06 10:49:31;;;;;;;19.08;15.57;;;;;;;5.63;87.29;100478.00;5243903;28;20112;-71
2023/03/06 10:52:19;;;;;;;19.30;14.68;;;;;;;6.39;84.76;100473.78;5243896;28;20029;-71
2023/03/06 10:54:51;;;;;;;17.80;14.38;;;;;;;7.21;82.38;100489.16;5259269;28;20054;-71
2023/03/06 10:57:30;;;;;;;18.33;14.53;;;;;;;6.91;81.67;100483.22;5242464;28;20069;-71
2023/03/06 11:00:22;;;;;;;16.13;12.70;;;;;;;6.49;80.47;100491.06;5243654;28;20034;-71
2023/03/06 11:03:14;;;;;;;14.60;11.90;;;;;;;6.48;79.47;100485.88;5243618;28;20074;-70
2023/03/06 11:05:54;;;;;;;16.25;12.05;;;;;;;5.99;80.59;100486.75;5243545;28;20048;-71
2023/03/06 11:08:26;;;;;;;15.23;10.88;;;;;;;5.76;81.83;100487.50;5243776;28;20037;-72
2023/03/06 11:11:06;;;;;;;14.90;12.33;;;;;;;5.97;82.49;100481.56;5245124;28;20045;-71
2023/03/06 11:13:40;;;;;;;17.33;13.57;;;;;;;5.73;83.08;100473.72;5246166;28;20030;-71
2023/03/06 11:16:31;;;;;;;14.82;12.13;;;;;;;5.95;83.61;100475.47;5247504;28;20045;-71
2023/03/06 11:19:05;;;;;;;16.27;12.52;;;;;;;6.27;82.83;100472.06;5245244;28;20124;-70
2023/03/06 11:21:39;;;;;;;16.38;11.93;;;;;;;6.15;82.10;100478.13;5243224;28;20029;-70
2023/03/06 11:24:20;;;;;;;15.13;12.43;;;;;;;6.52;81.69;100475.53;5242653;28;20029;-71
2023/03/06 11:26:57;;;;;;;16.20;10.82;;;;;;;6.29;81.01;100472.06;5242793;28;20029;-70
2023/03/06 11:29:37;;;;;;;15.10;11.30;;;;;;;6.28;81.56;100472.94;5242698;28;20403;-70
2023/03/06 11:32:14;;;;;;;18.35;12.55;;;;;;;6.54;81.45;100463.44;5242408;28;20373;-71
2023/03/06 11:34:55;;;;;;;15.25;11.68;;;;;;;6.95;78.16;100466.78;5242194;28;20104;-68
2023/03/06 11:37:32;;;;;;;13.45;11.85;;;;;;;6.99;77.61;100454.66;5242645;28;20461;-70